Time;durP1;ratioP1;P1;durP2;ratioP2;P2;SDS_P1;SDS_P2;PMS_P1;PMS_P2;Temp;Humidity;BMP_temperature;BMP_pressure;BME280_temperature;BME280_humidity;BME280_pressure;Samples;Min_cycle;Max_cycle;Signal;HPM_P1;HPM_P2
2021/04/11 00:00:39;;;;;;;15.00;13.38;;;;;;;8.22;73.45;99039.94;4959887;28;20067;-64
2021/04/11 00:03:10;;;;;;;18.95;16.83;;;;;;;8.21;73.86;99048.53;4976956;28;20059;-64
2021/04/11 00:05:38;;;;;;;15.10;13.50;;;;;;;8.20;73.69;99041.63;4944176;28;20092;-64
2021/04/11 00:08:07;;;;;;;12.73;11.40;;;;;;;8.17;74.09;99031.31;4976626;28;20039;-64
2021/04/11 00:10:39;;;;;;;14.00;12.55;;;;;;;8.17;73.93;99036.47;4944058;28;20405;-64
2021/04/11 00:13:09;;;;;;;14.48;12.77;;;;;;;8.18;73.56;99038.19;4976730;28;20089;-64
2021/04/11 00:15:34;;;;;;;15.50;13.38;;;;;;;8.16;73.85;99033.84;4960002;28;20070;-64
2021/04/11 00:18:05;;;;;;;16.42;13.30;;;;;;;8.14;73.75;99036.44;4976939;28;20081;-64
2021/04/11 00:20:30;;;;;;;16.42;13.35;;;;;;;8.14;73.94;99041.59;4944362;28;20403;-64
2021/04/11 00:22:59;;;;;;;16.00;14.30;;;;;;;8.14;73.98;99035.56;4959954;28;20049;-64
2021/04/11 00:25:29;;;;;;;17.08;13.95;;;;;;;8.13;73.82;99036.41;4943141;28;20249;-64
2021/04/11 00:28:02;;;;;;;14.75;12.52;;;;;;;8.11;73.75;99041.56;4959440;28;20077;-64
2021/04/11 00:30:30;;;;;;;15.65;14.05;;;;;;;8.08;73.62;99034.66;4943968;28;20043;-64
2021/04/11 00:32:58;;;;;;;15.45;12.25;;;;;;;8.08;74.06;99026.03;4977064;28;20496;-64
2021/04/11 00:35:27;;;;;;;13.82;12.18;;;;;;;8.07;73.66;99022.63;4959449;28;20082;-64
2021/04/11 00:37:53;;;;;;;14.65;12.45;;;;;;;8.09;73.76;99022.63;4976740;28;20363;-64
2021/04/11 00:40:25;;;;;;;12.90;11.57;;;;;;;8.10;73.94;99029.50;4959444;28;20501;-64
2021/04/11 00:43:03;;;;;;;13.45;11.98;;;;;;;8.11;73.75;99032.94;4959252;28;20035;-64
2021/04/11 00:45:40;;;;;;;13.57;12.07;;;;;;;8.09;73.75;99022.63;4943651;28;20043;-64
2021/04/11 00:48:09;;;;;;;16.27;13.88;;;;;;;8.09;73.80;99025.19;4943198;28;20035;-64
2021/04/11 00:50:34;;;;;;;15.50;13.77;;;;;;;8.07;74.21;99027.78;4959346;28;20035;-63
2021/04/11 00:53:00;;;;;;;17.25;14.25;;;;;;;8.08;73.96;99026.94;4959102;28;20041;-64
2021/04/11 00:55:27;;;;;;;16.33;13.60;;;;;;;8.07;73.66;99030.34;4959372;28;20039;-64
2021/04/11 00:57:54;;;;;;;16.02;13.68;;;;;;;8.06;74.04;99023.47;4976147;28;20414;-64
2021/04/11 01:00:27;;;;;;;17.60;13.70;;;;;;;8.02;73.79;99026.84;4943064;28;20136;-64
2021/04/11 01:02:53;;;;;;;16.43;13.93;;;;;;;8.04;73.92;99029.44;4942868;28;20062;-64
2021/04/11 01:05:31;;;;;;;17.55;14.25;;;;;;;8.02;74.04;99038.91;4942638;28;20286;-64
2021/04/11 01:07:58;;;;;;;17.30;14.43;;;;;;;8.02;73.76;99038.91;4973723;28;20039;-63
2021/04/11 01:10:30;;;;;;;18.17;13.60;;;;;;;8.01;73.86;99045.75;4976079;28;20113;-63
2021/04/11 01:12:56;;;;;;;17.55;14.55;;;;;;;8.01;73.91;99040.59;4942564;28;20485;-64
2021/04/11 01:15:30;;;;;;;14.95;13.10;;;;;;;8.00;73.54;99048.34;4942527;28;20474;-64
2021/04/11 01:17:56;;;;;;;16.73;13.20;;;;;;;8.00;73.81;99045.75;4942174;28;20067;-64
2021/04/11 01:20:24;;;;;;;16.13;13.52;;;;;;;8.01;73.89;99050.06;4942104;28;20046;-64
2021/04/11 01:23:04;;;;;;;14.50;12.07;;;;;;;8.00;73.80;99046.59;4958545;28;20058;-64
2021/04/11 01:25:33;;;;;;;14.95;12.65;;;;;;;8.00;73.99;99050.91;4958297;28;20045;-63
2021/04/11 01:28:00;;;;;;;12.77;10.93;;;;;;;8.00;74.12;99050.91;4942258;28;20506;-64
2021/04/11 01:30:30;;;;;;;15.05;12.48;;;;;;;8.00;74.01;99048.34;4942353;28;20039;-64
2021/04/11 01:33:00;;;;;;;14.25;11.60;;;;;;;8.01;73.64;99047.50;4943233;28;20126;-64
2021/04/11 01:35:30;;;;;;;14.13;11.32;;;;;;;8.00;73.88;99053.50;4958013;28;20039;-64
2021/04/11 01:38:00;;;;;;;15.30;11.35;;;;;;;8.00;73.83;99048.34;4975795;28;20062;-64
2021/04/11 01:40:37;;;;;;;14.40;11.57;;;;;;;7.99;73.99;99046.59;4975335;28;20039;-64
2021/04/11 01:43:08;;;;;;;14.07;11.68;;;;;;;8.01;73.77;99048.34;4942129;28;20039;-63
2021/04/11 01:45:39;;;;;;;13.48;11.77;;;;;;;8.02;73.68;99046.66;4942804;28;20046;-64
2021/04/11 01:48:09;;;;;;;13.07;11.18;;;;;;;8.01;74.05;99057.81;4942136;28;20498;-64
2021/04/11 01:50:39;;;;;;;15.80;10.77;;;;;;;7.99;73.52;99062.94;4958129;28;20042;-64
2021/04/11 01:53:06;;;;;;;12.52;11.13;;;;;;;7.97;74.00;99062.06;4942113;28;20376;-64
2021/04/11 01:55:32;;;;;;;12.23;10.57;;;;;;;7.98;73.90;99068.94;4941881;28;20410;-63
2021/04/11 01:58:01;;;;;;;11.85;10.32;;;;;;;7.95;73.89;99080.97;4975224;28;20077;-64
2021/04/11 02:00:37;;;;;;;15.70;10.73;;;;;;;7.93;73.94;99074.06;4942130;28;20177;-64
2021/04/11 02:03:14;;;;;;;11.52;9.90;;;;;;;7.89;73.79;99069.72;4957631;28;20049;-64
2021/04/11 02:05:45;;;;;;;13.10;9.93;;;;;;;7.93;73.37;99071.47;4974599;28;20031;-64
2021/04/11 02:08:14;;;;;;;12.13;9.52;;;;;;;7.97;73.87;99068.94;4941586;28;20498;-64
2021/04/11 02:10:44;;;;;;;12.80;10.98;;;;;;;7.95;73.47;99068.06;4941697;28;20089;-64
2021/04/11 02:13:11;;;;;;;11.55;9.45;;;;;;;7.96;73.68;99069.78;4957735;28;20567;-64
2021/04/11 02:15:42;;;;;;;11.18;9.98;;;;;;;7.94;73.57;99064.63;4941954;28;20061;-63
2021/04/11 02:18:11;;;;;;;9.82;8.63;;;;;;;7.91;73.84;99073.19;4974955;28;20043;-64
2021/04/11 02:20:36;;;;;;;9.38;8.02;;;;;;;7.88;73.71;99065.41;4974530;28;20034;-64
2021/04/11 02:23:02;;;;;;;10.45;8.75;;;;;;;7.88;73.93;99065.41;4957596;28;20375;-63
2021/04/11 02:25:35;;;;;;;10.55;7.82;;;;;;;7.89;73.76;99063.69;4957628;28;20371;-63
2021/04/11 02:28:01;;;;;;;9.67;8.40;;;;;;;7.90;73.87;99070.59;4958153;28;20039;-64
2021/04/11 02:30:30;;;;;;;10.00;8.75;;;;;;;7.88;73.87;99064.53;4941308;28;20501;-64
2021/04/11 02:32:57;;;;;;;10.68;9.15;;;;;;;7.87;73.65;99073.97;4941609;28;20138;-64
2021/04/11 02:35:26;;;;;;;9.45;8.07;;;;;;;7.85;73.99;99075.72;4941339;28;20409;-64
2021/04/11 02:37:58;;;;;;;9.52;7.82;;;;;;;7.87;73.49;99079.13;4974595;28;20027;-64
2021/04/11 02:40:30;;;;;;;9.02;7.55;;;;;;;7.84;73.75;99089.44;4941601;28;20046;-64
2021/04/11 02:42:57;;;;;;;9.50;8.40;;;;;;;7.84;73.76;99088.56;4974707;28;20078;-64
2021/04/11 02:45:27;;;;;;;9.07;7.32;;;;;;;7.80;73.55;99094.53;4957372;28;20081;-64
2021/04/11 02:47:53;;;;;;;8.63;7.72;;;;;;;7.77;73.54;99093.69;4941278;28;20042;-64
2021/04/11 02:50:24;;;;;;;8.75;7.65;;;;;;;7.77;73.94;99097.94;4974290;28;20035;-64
2021/04/11 02:53:06;;;;;;;9.60;7.60;;;;;;;7.76;74.04;99093.63;4957509;28;20097;-64
2021/04/11 02:55:42;;;;;;;9.00;7.55;;;;;;;7.77;73.42;99090.22;4957213;28;20035;-63
2021/04/11 02:58:16;;;;;;;9.05;8.15;;;;;;;7.74;73.73;99093.63;4941193;28;20047;-64
2021/04/11 03:01:06;;;;;;;8.73;7.82;;;;;;;7.72;73.46;99097.91;4941605;28;20046;-63
2021/04/11 03:03:34;;;;;;;8.23;7.20;;;;;;;7.70;73.68;99094.44;4974736;28;20550;-63
2021/04/11 03:06:12;;;;;;;9.70;8.55;;;;;;;7.71;73.77;99100.44;4940933;28;20030;-63
2021/04/11 03:08:38;;;;;;;9.63;8.63;;;;;;;7.70;73.86;99091.84;4941224;28;20034;-64
2021/04/11 03:11:30;;;;;;;8.25;7.35;;;;;;;7.68;73.46;99095.28;4956838;28;20041;-63
2021/04/11 03:13:57;;;;;;;9.32;8.13;;;;;;;7.67;73.73;99099.53;4948408;28;20054;-63
2021/04/11 03:16:24;;;;;;;8.55;7.18;;;;;;;7.68;73.65;99098.69;4941104;28;20074;-64
2021/04/11 03:18:56;;;;;;;9.80;8.50;;;;;;;7.67;73.84;99103.84;4940726;28;20057;-64
2021/04/11 03:21:23;;;;;;;8.20;7.32;;;;;;;7.65;73.78;99108.13;4940771;28;20406;-63
2021/04/11 03:23:55;;;;;;;8.43;7.55;;;;;;;7.66;73.76;99108.13;4957232;28;20035;-64
2021/04/11 03:26:31;;;;;;;7.82;7.03;;;;;;;7.67;73.72;99116.75;4941202;28;20035;-64
2021/04/11 03:29:19;;;;;;;9.15;7.80;;;;;;;7.66;73.33;99122.75;4974083;28;20039;-63
2021/04/11 03:32:09;;;;;;;9.00;8.10;;;;;;;7.67;73.65;99129.66;4940987;28;20066;-64
2021/04/11 03:34:44;;;;;;;9.45;8.48;;;;;;;7.65;73.53;99131.31;4941529;28;20133;-64
2021/04/11 03:37:17;;;;;;;9.02;8.13;;;;;;;7.65;73.61;99136.50;4974339;28;20379;-63
2021/04/11 03:39:48;;;;;;;9.65;8.30;;;;;;;7.61;73.76;99145.91;4956892;28;20122;-63
2021/04/11 03:42:17;;;;;;;8.98;8.07;;;;;;;7.60;73.73;99133.84;4957963;28;20034;-64
2021/04/11 03:44:43;;;;;;;9.60;7.72;;;;;;;7.62;73.31;99139.91;4978353;28;20046;-64
2021/04/11 03:47:21;;;;;;;9.27;8.25;;;;;;;7.60;73.54;99136.44;4960480;28;20565;-63
2021/04/11 03:49:58;;;;;;;8.90;8.00;;;;;;;7.60;73.87;99139.88;4960388;28;20066;-64
2021/04/11 03:52:37;;;;;;;8.82;7.93;;;;;;;7.60;73.83;99139.88;4977668;28;20487;-64
2021/04/11 03:55:10;;;;;;;8.55;7.57;;;;;;;7.59;73.59;99147.59;4944591;28;20038;-64
2021/04/11 03:57:50;;;;;;;9.18;7.82;;;;;;;7.55;73.76;99159.56;4977100;28;20041;-64
2021/04/11 04:00:34;;;;;;;8.98;7.60;;;;;;;7.54;73.32;99160.44;4977354;28;20125;-64
2021/04/11 04:03:15;;;;;;;9.18;8.18;;;;;;;7.54;73.49;99173.31;4960069;28;20054;-63
2021/04/11 04:05:42;;;;;;;9.85;8.00;;;;;;;7.53;73.50;99170.69;4977694;28;20118;-63
2021/04/11 04:08:10;;;;;;;10.32;8.20;;;;;;;7.55;73.48;99169.00;4977162;28;20053;-63
2021/04/11 04:10:58;;;;;;;9.43;7.80;;;;;;;7.51;73.73;99174.97;4943739;28;20038;-64
2021/04/11 04:14:15;;;;;;;8.13;6.90;;;;;;;7.50;73.44;99178.38;4944032;28;20058;-63
2021/04/11 04:16:59;;;;;;;7.30;6.32;;;;;;;7.48;73.85;99183.53;4933836;28;20093;-64
2021/04/11 04:19:33;;;;;;;8.77;7.35;;;;;;;7.47;73.62;99195.53;4976961;28;20391;-63
2021/04/11 04:22:43;;;;;;;8.73;7.82;;;;;;;7.44;73.56;99204.94;4943924;28;20061;-64
2021/04/11 04:25:17;;;;;;;7.97;6.68;;;;;;;7.41;73.60;99207.47;4943702;28;20038;-63
2021/04/11 04:27:46;;;;;;;7.95;6.90;;;;;;;7.38;73.09;99205.72;4943534;28;20049;-63
2021/04/11 04:30:18;;;;;;;8.70;6.80;;;;;;;7.37;73.39;99206.56;4976581;28;20126;-63
2021/04/11 04:32:53;;;;;;;7.80;6.93;;;;;;;7.37;73.49;99206.56;4977197;28;20395;-63
2021/04/11 04:35:27;;;;;;;6.93;6.22;;;;;;;7.38;73.59;99217.75;4976534;28;20042;-64
2021/04/11 04:38:17;;;;;;;7.47;6.60;;;;;;;7.37;73.57;99211.72;4943281;28;20457;-63
2021/04/11 04:40:55;;;;;;;8.35;7.47;;;;;;;7.35;73.56;99228.03;4959111;28;20054;-63
2021/04/11 04:43:46;;;;;;;8.18;7.35;;;;;;;7.35;73.37;99222.88;4943654;28;20395;-63
2021/04/11 04:46:20;;;;;;;7.65;6.82;;;;;;;7.34;73.32;99215.97;4943429;28;20042;-64
2021/04/11 04:48:57;;;;;;;7.50;6.65;;;;;;;7.36;73.59;99212.56;4943348;28;20111;-63
2021/04/11 04:51:53;;;;;;;7.18;6.47;;;;;;;7.34;73.20;99221.13;4959314;28;20050;-63
2021/04/11 04:54:38;;;;;;;7.43;6.72;;;;;;;7.34;73.05;99232.28;4938425;28;20577;-64
2021/04/11 04:57:17;;;;;;;6.80;6.10;;;;;;;7.36;73.36;99232.34;4959377;28;20070;-64
2021/04/11 04:59:59;;;;;;;7.22;6.30;;;;;;;7.33;73.37;99227.97;4942470;28;20046;-64
2021/04/11 05:02:30;;;;;;;8.43;7.28;;;;;;;7.32;73.35;99231.41;4955684;28;20078;-63
2021/04/11 05:05:02;;;;;;;7.28;6.55;;;;;;;7.35;73.62;99226.28;4939602;29;20492;-64
2021/04/11 05:07:33;;;;;;;7.60;6.70;;;;;;;7.37;73.24;99234.94;4955474;29;20050;-63
2021/04/11 05:10:12;;;;;;;7.78;6.45;;;;;;;7.38;73.56;99233.22;4939250;29;20031;-63
2021/04/11 05:13:00;;;;;;;7.72;7.00;;;;;;;7.38;73.07;99240.97;4939969;29;20047;-64
2021/04/11 05:15:44;;;;;;;5.85;5.10;;;;;;;7.35;73.31;99241.75;4956998;28;20121;-63
2021/04/11 05:18:31;;;;;;;6.57;5.82;;;;;;;7.35;73.51;99238.34;4955570;29;20078;-63
2021/04/11 05:21:25;;;;;;;6.95;6.25;;;;;;;7.36;73.11;99240.91;4939195;29;20065;-63
2021/04/11 05:24:13;;;;;;;6.70;5.50;;;;;;;7.34;73.15;99254.63;4955846;29;20051;-63
2021/04/11 05:26:46;;;;;;;6.68;5.82;;;;;;;7.35;73.57;99264.09;4939265;29;20491;-63
2021/04/11 05:29:31;;;;;;;7.05;6.35;;;;;;;7.34;73.21;99258.06;4939373;29;20443;-63
2021/04/11 05:31:57;;;;;;;7.80;7.00;;;;;;;7.35;73.48;99264.09;4939693;29;20039;-63
2021/04/11 05:34:30;;;;;;;7.32;5.93;;;;;;;7.32;73.43;99277.78;4956343;29;20065;-63
2021/04/11 05:37:14;;;;;;;7.80;6.55;;;;;;;7.32;73.42;99275.22;4955117;29;20400;-63
2021/04/11 05:39:49;;;;;;;7.47;6.25;;;;;;;7.28;73.29;99281.19;4939583;29;20063;-63
2021/04/11 05:42:36;;;;;;;8.60;7.07;;;;;;;7.29;73.04;99283.78;4954258;29;20035;-63
2021/04/11 05:45:28;;;;;;;7.50;6.50;;;;;;;7.27;72.90;99285.47;4954764;29;20066;-63
2021/04/11 05:48:10;;;;;;;8.27;6.45;;;;;;;7.28;73.15;99299.22;4952184;29;20122;-63
2021/04/11 05:50:56;;;;;;;8.50;7.03;;;;;;;7.25;73.13;99302.59;4938513;29;20039;-63
2021/04/11 05:53:45;;;;;;;7.18;6.47;;;;;;;7.24;73.23;99311.16;4938878;29;20031;-64
2021/04/11 05:56:19;;;;;;;7.18;6.15;;;;;;;7.22;73.52;99320.63;4949365;29;20059;-63
2021/04/11 05:58:51;;;;;;;7.47;6.28;;;;;;;7.24;72.86;99321.47;4939200;29;20050;-64
2021/04/11 06:01:28;;;;;;;7.50;6.28;;;;;;;7.24;73.21;99323.19;4938949;29;20108;-63
2021/04/11 06:04:16;;;;;;;;;;;;;;;7.23;72.86;99337.81;4954793;28;20058;-63
2021/04/11 06:07:07;;;;;;;7.05;6.28;;;;;;;7.25;73.06;99340.41;4938532;29;19957;-63
2021/04/11 06:09:48;;;;;;;6.25;5.63;;;;;;;7.24;73.01;99347.25;4938989;29;20502;-64
2021/04/11 06:12:26;;;;;;;6.95;5.70;;;;;;;7.26;72.93;99340.41;4938696;29;20102;-64
2021/04/11 06:15:00;;;;;;;8.20;5.65;;;;;;;7.28;73.39;99345.63;4955666;29;20509;-64
2021/04/11 06:17:26;;;;;;;6.60;5.57;;;;;;;7.26;73.34;99337.84;4938604;29;20051;-63
2021/04/11 06:19:53;;;;;;;6.63;5.88;;;;;;;7.27;73.15;99334.44;4955616;29;20046;-63
2021/04/11 06:22:27;;;;;;;6.32;5.30;;;;;;;7.27;72.92;99329.28;4938244;29;20118;-63
2021/04/11 06:25:07;;;;;;;6.28;5.47;;;;;;;7.24;73.22;99339.53;4938274;29;20082;-63
2021/04/11 06:28:06;;;;;;;6.97;4.93;;;;;;;7.24;73.12;99343.81;4938151;29;20031;-63
2021/04/11 06:30:38;;;;;;;6.15;5.55;;;;;;;7.23;73.35;99342.97;4954506;29;20045;-63
2021/04/11 06:33:20;;;;;;;6.60;5.07;;;;;;;7.21;72.87;99344.66;4953554;29;20050;-64
2021/04/11 06:35:49;;;;;;;6.38;5.30;;;;;;;7.20;73.07;99358.38;4953987;29;20067;-63
2021/04/11 06:38:36;;;;;;;5.80;5.07;;;;;;;7.20;73.08;99365.22;4955368;29;20431;-64
2021/04/11 06:41:13;;;;;;;5.60;4.97;;;;;;;7.20;73.47;99360.06;4953878;29;20043;-64
2021/04/11 06:44:03;;;;;;;5.45;4.90;;;;;;;7.19;72.72;99361.78;4938638;29;20051;-63
2021/04/11 06:46:57;;;;;;;5.28;4.53;;;;;;;7.20;73.30;99372.94;4937781;29;20074;-64
2021/04/11 06:49:53;;;;;;;5.15;4.60;;;;;;;7.18;73.27;99372.94;4955149;28;20046;-64
2021/04/11 06:52:50;;;;;;;5.30;4.68;;;;;;;7.18;73.30;99372.03;4953627;29;20046;-64
2021/04/11 06:55:37;;;;;;;5.97;4.80;;;;;;;7.17;73.32;99373.78;4937593;29;20067;-64
2021/04/11 06:58:35;;;;;;;5.22;4.32;;;;;;;7.19;72.92;99360.91;4937913;29;20039;-63
2021/04/11 07:01:16;;;;;;;4.80;4.30;;;;;;;7.20;73.25;99370.38;4945204;29;20055;-62
2021/04/11 07:04:00;;;;;;;5.07;4.55;;;;;;;7.19;72.94;99363.47;4953924;29;20059;-62
2021/04/11 07:06:54;;;;;;;5.20;4.70;;;;;;;7.18;72.69;99382.34;4954079;29;20098;-62
2021/04/11 07:09:41;;;;;;;5.95;5.35;;;;;;;7.19;73.13;99386.66;4953684;29;20039;-62
2021/04/11 07:12:44;;;;;;;5.63;4.97;;;;;;;7.20;72.71;99389.31;4954003;29;20039;-62
2021/04/11 07:15:19;;;;;;;4.95;4.43;;;;;;;7.20;73.19;99394.44;4953581;29;20444;-63
2021/04/11 07:18:03;;;;;;;5.22;4.47;;;;;;;7.19;73.55;99392.72;4957371;28;20043;-63
2021/04/11 07:21:06;;;;;;;5.68;4.95;;;;;;;7.19;72.86;99399.56;4941023;29;20074;-62
2021/04/11 07:23:54;;;;;;;5.03;4.15;;;;;;;7.18;73.25;99402.97;4958462;29;20039;-63
2021/04/11 07:27:02;;;;;;;5.85;4.78;;;;;;;7.16;72.94;99397.81;4957294;29;20058;-63
2021/04/11 07:30:04;;;;;;;5.68;4.82;;;;;;;7.15;72.74;99396.94;4957369;29;20047;-64
2021/04/11 07:32:41;;;;;;;5.43;4.63;;;;;;;7.15;73.27;99396.94;4957344;29;20035;-63
2021/04/11 07:35:10;;;;;;;5.68;4.78;;;;;;;7.16;72.77;99395.22;4956922;29;20475;-63
2021/04/11 07:38:07;;;;;;;5.93;5.22;;;;;;;7.16;73.17;99400.38;4958002;29;20415;-64
2021/04/11 07:41:05;;;;;;;4.90;4.40;;;;;;;7.15;73.05;99394.38;4956546;29;20035;-63
2021/04/11 07:43:59;;;;;;;5.78;4.40;;;;;;;7.14;72.88;99408.09;4957242;29;20142;-64
2021/04/11 07:46:34;;;;;;;5.13;4.57;;;;;;;7.13;72.79;99402.91;4957145;29;20177;-63
2021/04/11 07:49:35;;;;;;;5.07;3.88;;;;;;;7.12;72.94;99422.66;4940925;29;20039;-63
2021/04/11 07:52:28;;;;;;;5.10;4.55;;;;;;;7.13;73.03;99429.56;4941201;29;20046;-63
2021/04/11 07:55:17;;;;;;;5.28;4.50;;;;;;;7.13;72.87;99431.25;4956497;29;20078;-63
2021/04/11 07:57:56;;;;;;;5.00;4.40;;;;;;;7.14;73.07;99438.13;4957281;29;20075;-63
2021/04/11 08:00:42;;;;;;;5.38;4.30;;;;;;;7.12;73.05;99434.66;4941143;29;20054;-64
2021/04/11 08:03:29;;;;;;;5.18;4.68;;;;;;;7.14;73.06;99432.97;4940795;29;20130;-64
2021/04/11 08:06:22;;;;;;;4.68;3.78;;;;;;;7.12;72.54;99437.22;4940489;29;20035;-64
2021/04/11 08:09:08;;;;;;;5.72;4.85;;;;;;;7.09;73.02;99432.91;4956437;29;20042;-63
2021/04/11 08:11:54;;;;;;;4.75;4.25;;;;;;;7.08;72.92;99435.44;4956716;29;20054;-63
2021/04/11 08:14:51;;;;;;;4.95;4.20;;;;;;;7.06;72.71;99426.81;4956912;29;20086;-64
2021/04/11 08:17:38;;;;;;;4.25;3.67;;;;;;;7.04;72.91;99441.38;4940819;29;20035;-64
2021/04/11 08:20:48;;;;;;;4.00;3.38;;;;;;;7.01;73.32;99443.03;4956446;29;20046;-64
2021/04/11 08:23:53;;;;;;;4.13;3.72;;;;;;;7.01;72.86;99453.34;4930062;29;20062;-63
2021/04/11 08:26:46;;;;;;;3.60;3.30;;;;;;;7.03;73.24;99460.25;4956372;29;20035;-63
2021/04/11 08:29:26;;;;;;;3.50;3.17;;;;;;;7.01;72.85;99455.94;4956191;28;20036;-63
2021/04/11 08:32:20;;;;;;;3.95;3.30;;;;;;;7.01;73.17;99466.22;4940046;29;20031;-64
2021/04/11 08:34:48;;;;;;;4.00;3.65;;;;;;;7.01;72.35;99465.34;4956052;29;20491;-63
2021/04/11 08:37:29;;;;;;;3.58;3.22;;;;;;;6.98;72.83;99473.91;4956256;29;20035;-63
2021/04/11 08:40:11;;;;;;;3.60;3.30;;;;;;;7.00;73.28;99481.66;4939827;29;20495;-63
2021/04/11 08:43:01;;;;;;;3.25;2.95;;;;;;;6.98;73.05;99485.91;4955426;29;20090;-63
2021/04/11 08:46:01;;;;;;;3.28;2.65;;;;;;;6.98;72.95;99476.47;4939672;29;20047;-63
2021/04/11 08:49:05;;;;;;;4.13;2.85;;;;;;;6.97;73.28;99473.88;4956393;29;20043;-63
2021/04/11 08:51:43;;;;;;;2.97;2.30;;;;;;;6.97;72.88;99487.59;4955917;29;20048;-64
2021/04/11 08:54:31;;;;;;;3.08;2.78;;;;;;;6.98;73.01;99491.06;4940640;29;20043;-64
2021/04/11 08:57:05;;;;;;;2.70;2.42;;;;;;;6.97;72.89;99495.34;4956052;29;20141;-63
2021/04/11 08:59:54;;;;;;;3.53;3.22;;;;;;;6.96;73.44;99496.16;4939574;29;20518;-64
2021/04/11 09:02:44;;;;;;;2.97;2.75;;;;;;;6.95;72.80;99507.31;4939585;29;20055;-63
2021/04/11 09:05:18;;;;;;;3.53;2.53;;;;;;;6.95;73.18;99516.75;4955543;29;20074;-64
2021/04/11 09:08:19;;;;;;;3.28;2.40;;;;;;;6.92;73.14;99512.41;4956800;29;20071;-64
2021/04/11 09:11:22;;;;;;;2.50;2.30;;;;;;;6.92;72.95;99519.25;4955807;29;20094;-64
2021/04/11 09:14:05;;;;;;;3.22;2.85;;;;;;;6.92;73.12;99522.72;4955848;29;20126;-63
2021/04/11 09:16:59;;;;;;;3.10;2.80;;;;;;;6.94;72.66;99535.63;4939246;29;20043;-64
2021/04/11 09:19:48;;;;;;;2.88;2.60;;;;;;;6.93;72.63;99532.16;4955448;29;20039;-64
2021/04/11 09:22:50;;;;;;;2.85;2.45;;;;;;;6.93;72.71;99537.31;4956198;29;20042;-64
2021/04/11 09:25:23;;;;;;;3.60;2.63;;;;;;;6.93;72.88;99544.19;4939324;29;20067;-63
2021/04/11 09:28:30;;;;;;;3.60;2.30;;;;;;;6.92;72.80;99540.75;4938996;29;20045;-63
2021/04/11 09:31:24;;;;;;;2.60;2.40;;;;;;;6.93;72.87;99554.50;4918812;29;20090;-63
2021/04/11 09:34:02;;;;;;;2.50;2.30;;;;;;;6.92;73.03;99553.66;4934986;29;20036;-63
2021/04/11 09:36:42;;;;;;;2.20;2.00;;;;;;;6.89;73.39;99553.56;4928918;29;20059;-63
2021/04/11 09:39:11;;;;;;;3.05;2.20;;;;;;;6.87;72.76;99562.97;4955334;28;20040;-64
2021/04/11 09:41:51;;;;;;;2.80;2.50;;;;;;;6.85;73.09;99552.59;4954685;29;20046;-64
2021/04/11 09:44:33;;;;;;;3.00;2.75;;;;;;;6.86;73.18;99566.38;4954606;29;20042;-63
2021/04/11 09:47:16;;;;;;;2.65;2.25;;;;;;;6.87;72.96;99562.97;4939962;29;20077;-63
2021/04/11 09:49:49;;;;;;;2.15;1.95;;;;;;;6.85;73.40;99552.59;4955986;29;20042;-65
2021/04/11 09:52:44;;;;;;;2.65;2.10;;;;;;;6.85;72.99;99555.19;4939035;29;20126;-63
2021/04/11 09:55:27;;;;;;;3.00;2.50;;;;;;;6.84;72.59;99552.59;4955909;28;20043;-63
2021/04/11 09:58:30;;;;;;;2.72;2.50;;;;;;;6.82;72.70;99564.53;4955199;29;20039;-63
2021/04/11 10:01:26;;;;;;;3.05;2.08;;;;;;;6.82;72.69;99568.00;4954737;29;20043;-63
2021/04/11 10:04:00;;;;;;;2.40;2.10;;;;;;;6.85;72.61;99562.06;4971320;28;20058;-63
2021/04/11 10:06:57;;;;;;;6.10;2.80;;;;;;;6.81;72.84;99568.84;4941633;28;20061;-63
2021/04/11 10:09:31;;;;;;;3.45;2.67;;;;;;;6.81;72.68;99568.84;4958324;28;20031;-64
2021/04/11 10:12:29;;;;;;;3.00;2.70;;;;;;;6.81;72.85;99574.00;4975541;28;20062;-64
2021/04/11 10:15:13;;;;;;;3.00;2.80;;;;;;;6.81;72.58;99570.53;4974471;28;20379;-64
2021/04/11 10:17:45;;;;;;;2.85;2.65;;;;;;;6.78;73.06;99578.19;4975308;28;20122;-63
2021/04/11 10:20:14;;;;;;;3.30;2.72;;;;;;;6.79;73.06;99575.66;4941741;28;20030;-64
2021/04/11 10:22:51;;;;;;;3.40;3.10;;;;;;;6.79;73.06;99579.91;4941541;28;20466;-63
2021/04/11 10:25:29;;;;;;;2.65;2.45;;;;;;;6.78;73.21;99585.91;4957131;28;20035;-64
2021/04/11 10:28:12;;;;;;;4.68;2.90;;;;;;;6.79;73.05;99591.13;4941173;28;20073;-63
2021/04/11 10:30:45;;;;;;;5.00;2.93;;;;;;;6.79;73.11;99595.38;4941192;28;20031;-64
2021/04/11 10:33:21;;;;;;;3.63;2.92;;;;;;;6.79;73.13;99598.84;4957495;28;20035;-64
2021/04/11 10:36:04;;;;;;;3.20;2.78;;;;;;;6.80;72.71;99595.44;4957146;28;20106;-63
2021/04/11 10:38:34;;;;;;;3.22;2.92;;;;;;;6.80;72.55;99599.69;4940929;28;20038;-64
2021/04/11 10:41:12;;;;;;;3.45;3.15;;;;;;;6.80;73.03;99620.31;4957417;28;20490;-63
2021/04/11 10:43:44;;;;;;;7.70;2.70;;;;;;;6.80;72.69;99616.03;4941486;28;20414;-63
2021/04/11 10:46:15;;;;;;;3.92;3.00;;;;;;;6.82;72.83;99623.78;4956890;28;20485;-63
2021/04/11 10:49:05;;;;;;;4.57;3.10;;;;;;;6.81;72.89;99625.50;4974401;28;20031;-63
2021/04/11 10:52:05;;;;;;;3.22;2.92;;;;;;;6.81;72.63;99625.50;4957061;28;20042;-63
2021/04/11 10:54:47;;;;;;;4.28;3.30;;;;;;;6.81;72.92;99632.34;4974389;28;20031;-63
2021/04/11 10:57:40;;;;;;;3.70;3.40;;;;;;;6.80;72.86;99630.59;4941006;28;20039;-63
2021/04/11 11:00:11;;;;;;;4.35;3.10;;;;;;;6.79;73.22;99628.88;4957156;28;20030;-64
2021/04/11 11:02:58;;;;;;;3.47;3.17;;;;;;;6.79;73.00;99632.31;4956880;28;20051;-63
2021/04/11 11:05:35;;;;;;;3.38;2.85;;;;;;;6.78;72.76;99646.03;4974446;28;20089;-63
2021/04/11 11:08:19;;;;;;;3.97;3.03;;;;;;;6.76;72.93;99639.13;4957158;28;20057;-63
2021/04/11 11:11:14;;;;;;;2.78;2.47;;;;;;;6.75;73.20;99638.22;4941174;28;20089;-63
2021/04/11 11:14:05;;;;;;;3.33;2.90;;;;;;;6.75;72.59;99638.22;4946415;28;20131;-63
2021/04/11 11:16:59;;;;;;;3.88;3.47;;;;;;;6.76;72.76;99646.84;4941519;28;20062;-64
2021/04/11 11:19:51;;;;;;;3.42;3.05;;;;;;;6.78;72.76;99643.47;4941045;28;20069;-63
2021/04/11 11:22:39;;;;;;;4.15;3.33;;;;;;;6.76;73.04;99649.41;4956840;28;20377;-64
2021/04/11 11:25:31;;;;;;;2.78;2.58;;;;;;;6.75;73.01;99650.25;4957197;28;20047;-63
2021/04/11 11:28:13;;;;;;;3.65;3.35;;;;;;;6.75;72.69;99658.84;4974240;28;20394;-64
2021/04/11 11:31:06;;;;;;;3.10;2.70;;;;;;;6.76;72.57;99659.72;4956683;28;20038;-64
2021/04/11 11:33:49;;;;;;;4.50;3.30;;;;;;;6.75;72.70;99663.13;4974069;28;20126;-64
2021/04/11 11:36:21;;;;;;;3.55;3.25;;;;;;;6.77;73.02;99671.78;4940783;28;20062;-64
2021/04/11 11:39:02;;;;;;;3.30;3.00;;;;;;;6.78;72.73;99670.91;4956155;28;20043;-63
2021/04/11 11:41:56;;;;;;;3.90;3.13;;;;;;;6.78;72.89;99666.66;4941096;28;20039;-64
2021/04/11 11:44:28;;;;;;;2.67;2.40;;;;;;;6.78;72.73;99668.34;4973667;28;20419;-63
2021/04/11 11:47:06;;;;;;;4.03;2.72;;;;;;;6.77;72.47;99672.63;4973995;28;20434;-64
2021/04/11 11:50:10;;;;;;;4.05;3.35;;;;;;;6.78;72.82;99673.47;4973615;28;20039;-64
2021/04/11 11:53:00;;;;;;;4.20;2.83;;;;;;;6.77;72.89;99672.63;4941949;28;20046;-64
2021/04/11 11:55:37;;;;;;;4.00;2.85;;;;;;;6.77;73.10;99669.19;4939865;28;20039;-64
2021/04/11 11:58:14;;;;;;;3.53;3.03;;;;;;;6.76;73.20;99678.59;4973768;28;20027;-64
2021/04/11 12:00:44;;;;;;;3.28;3.03;;;;;;;6.77;72.41;99676.91;4940821;28;20077;-63
2021/04/11 12:03:18;;;;;;;3.47;3.17;;;;;;;6.76;72.81;99678.59;4958187;28;20047;-64
2021/04/11 12:06:12;;;;;;;3.17;2.88;;;;;;;6.75;72.65;99683.72;4959946;28;20042;-64
2021/04/11 12:09:01;;;;;;;5.70;2.80;;;;;;;6.75;73.20;99684.59;4943826;28;20043;-64
2021/04/11 12:11:53;;;;;;;3.75;3.10;;;;;;;6.72;72.96;99673.34;4932888;28;20050;-63
2021/04/11 12:14:34;;;;;;;6.82;3.67;;;;;;;6.69;72.84;99681.88;4930435;28;20419;-63
2021/04/11 12:17:03;;;;;;;3.17;2.88;;;;;;;6.67;72.48;99696.41;4944093;28;20038;-63
2021/04/11 12:19:39;;;;;;;3.05;2.75;;;;;;;6.65;72.90;99692.91;4976992;28;20043;-63
2021/04/11 12:22:48;;;;;;;4.25;2.50;;;;;;;6.63;72.50;99700.59;4943463;28;20066;-63
2021/04/11 12:25:24;;;;;;;4.90;2.45;;;;;;;6.63;72.84;99710.03;4918656;28;20503;-63
2021/04/11 12:27:58;;;;;;;2.97;2.75;;;;;;;6.65;73.16;99708.38;4943315;28;20089;-64
2021/04/11 12:30:33;;;;;;;2.97;2.67;;;;;;;6.66;72.70;99723.00;4959190;28;20084;-64
2021/04/11 12:33:11;;;;;;;3.88;2.78;;;;;;;6.64;73.16;99717.78;4959287;28;20043;-64
2021/04/11 12:35:43;;;;;;;2.70;2.50;;;;;;;6.65;72.96;99722.09;4976341;28;20043;-64
2021/04/11 12:38:22;;;;;;;3.40;2.72;;;;;;;6.67;72.90;99732.47;4976963;28;20038;-63